»·PEaware :: N158WC KSBD-KBFL

N158WC :: KSBD-KBFL

FLIGHT INFORMATION

Flight Status: Arrived
Operator: Privately registered:
United States
More flights under this callsign
Pilot: Sanjiv S. (4490)
Aircraft: BEECH AIRCRAFT BARON
(BE58)
More flights by this aircraft type
Origin: KSBD San Bernardino Intl
United States
Destination: KBFL Meadows
United States
More flights between these airports :: More routes between these airports
Route: +PDZ V186 DARTS LHS FASTO2
File this flight plan on PilotEdge
Remarks:
Altitude:
(Current/Filed)
12,000ft
Speed:
(Current/Filed)
150kts
Departed: 19-Jul-18 10:11 AM
Arrived: 19-Jul-18 11:16 AM
Distance/Time
Traveled:
120nm/1:05
Distance/Time
To Go:
Arrived

Flight Plot

Page will automatically refresh every two minutes.

Flight plan parsing failed; only flown route is shown


Map Options




Map Legend


Flown Route
Filed Route
Departure Airport
Arrival Airport
Navaid (VOR, NDB)
Fix

Horizontal Profiles

Position Reports

Time Latitude Longitude Heading Altitude Ground
Speed
19-Jul-18 09:31 34.102166 -117.224730 93 1143ft 0kts
19-Jul-18 09:32 34.102166 -117.224730 93 1143ft 0kts
19-Jul-18 09:33 34.102166 -117.224730 93 1143ft 0kts
19-Jul-18 09:34 34.102166 -117.224730 93 1143ft 0kts
19-Jul-18 09:35 34.102166 -117.224730 93 1143ft 0kts
19-Jul-18 09:36 34.102166 -117.224730 93 1143ft 0kts
19-Jul-18 09:37 34.102166 -117.224730 93 1143ft 0kts
19-Jul-18 09:38 34.102166 -117.224730 93 1143ft 0kts
19-Jul-18 09:39 34.102166 -117.224730 93 1143ft 0kts
19-Jul-18 09:40 34.102166 -117.224730 93 1143ft 0kts
19-Jul-18 09:41 34.102166 -117.224730 93 1143ft 0kts
19-Jul-18 09:42 34.102166 -117.224730 93 1143ft 0kts
19-Jul-18 09:43 34.102166 -117.224730 93 1143ft 0kts
19-Jul-18 09:44 34.102166 -117.224730 93 1143ft 0kts
19-Jul-18 09:45 34.102166 -117.224730 93 1143ft 0kts
19-Jul-18 09:46 34.102166 -117.224730 93 1143ft 0kts
19-Jul-18 09:47 34.102166 -117.224730 93 1143ft 0kts
19-Jul-18 09:48 34.102166 -117.224730 93 1143ft 0kts
19-Jul-18 09:49 34.102166 -117.224730 93 1143ft 0kts
19-Jul-18 09:50 34.102166 -117.224730 93 1143ft 0kts
19-Jul-18 09:51 34.102166 -117.224730 93 1143ft 0kts
19-Jul-18 09:52 34.102166 -117.224730 93 1143ft 0kts
19-Jul-18 09:53 34.102166 -117.224730 93 1143ft 0kts
19-Jul-18 09:54 34.102166 -117.224730 93 1143ft 0kts
19-Jul-18 09:55 34.102166 -117.224730 93 1143ft 0kts
19-Jul-18 09:56 34.102166 -117.224730 93 1143ft 0kts
19-Jul-18 09:57 34.102106 -117.224561 148 1143ft 3kts
19-Jul-18 09:58 34.101112 -117.224901 208 1143ft 8kts
19-Jul-18 09:59 34.101025 -117.224931 189 1143ft 0kts
19-Jul-18 10:00 34.100934 -117.224957 201 1142ft 3kts
19-Jul-18 10:01 34.100346 -117.226648 241 1136ft 7kts
19-Jul-18 10:02 34.099160 -117.228073 236 1133ft 10kts
19-Jul-18 10:03 34.097744 -117.232829 250 1120ft 17kts
19-Jul-18 10:04 34.096121 -117.238277 247 1106ft 16kts
19-Jul-18 10:05 34.094444 -117.244009 248 1092ft 18kts
19-Jul-18 10:06 34.092847 -117.249383 255 1081ft 16kts
19-Jul-18 10:07 34.091536 -117.250736 159 1078ft 0kts
19-Jul-18 10:08 34.091536 -117.250736 159 1078ft 0kts
19-Jul-18 10:09 34.091536 -117.250736 159 1078ft 0kts
19-Jul-18 10:10 34.091535 -117.250735 159 1078ft 0kts
19-Jul-18 10:11 34.090823 -117.249959 80 1080ft 4kts
19-Jul-18 10:12 34.097882 -117.229108 76 1464ft 102kts
19-Jul-18 10:13 34.088622 -117.200435 185 2560ft 112kts
19-Jul-18 10:14 34.064008 -117.228585 208 3512ft 141kts
19-Jul-18 10:15 34.041964 -117.262651 241 4088ft 146kts
19-Jul-18 10:16 34.023873 -117.301799 241 4668ft 141kts
19-Jul-18 10:17 34.018919 -117.343704 279 5168ft 140kts
19-Jul-18 10:18 34.023603 -117.385892 279 5644ft 143kts
19-Jul-18 10:19 34.028706 -117.431688 279 6262ft 150kts
19-Jul-18 10:20 34.033991 -117.478575 279 6894ft 152kts
19-Jul-18 10:21 34.039634 -117.527583 279 7519ft 153kts
19-Jul-18 10:22 34.045509 -117.576944 280 8012ft 162kts
19-Jul-18 10:23 34.052386 -117.632389 281 8005ft 183kts
19-Jul-18 10:24 34.063544 -117.682132 291 8003ft 186kts
19-Jul-18 10:25 34.080276 -117.738984 291 8006ft 186kts
19-Jul-18 10:26 34.095383 -117.792486 291 8442ft 171kts
19-Jul-18 10:27 34.110317 -117.843923 291 8927ft 171kts
19-Jul-18 10:28 34.125388 -117.894779 291 9376ft 172kts
19-Jul-18 10:29 34.141674 -117.943795 291 9833ft 170kts
19-Jul-18 10:30 34.160680 -117.991028 291 10229ft 170kts
19-Jul-18 10:31 34.180583 -118.041940 291 10619ft 173kts
19-Jul-18 10:32 34.199908 -118.092810 291 10990ft 175kts
19-Jul-18 10:33 34.219155 -118.144423 291 11352ft 176kts
19-Jul-18 10:34 34.238204 -118.196110 291 11698ft 177kts
19-Jul-18 10:35 34.256904 -118.247354 291 11915ft 184kts
19-Jul-18 10:36 34.275912 -118.299700 291 11917ft 186kts
19-Jul-18 10:37 34.301948 -118.345900 334 11926ft 190kts
19-Jul-18 10:38 34.346888 -118.373685 336 11932ft 192kts
19-Jul-18 10:39 34.392555 -118.401314 336 11943ft 192kts
19-Jul-18 10:40 34.438332 -118.428907 336 11947ft 193kts
19-Jul-18 10:41 34.483593 -118.456259 336 11947ft 193kts
19-Jul-18 10:42 34.530286 -118.484433 336 11947ft 193kts
19-Jul-18 10:43 34.573703 -118.510653 336 11947ft 193kts
19-Jul-18 10:44 34.619340 -118.538269 336 11948ft 193kts
19-Jul-18 10:45 34.664690 -118.565716 336 11987ft 192kts
19-Jul-18 10:46 34.704952 -118.601022 319 11999ft 194kts
19-Jul-18 10:47 34.744482 -118.642620 320 12030ft 193kts
19-Jul-18 10:48 34.777931 -118.678527 319 12054ft 192kts
19-Jul-18 10:49 34.815646 -118.719069 319 12076ft 192kts
19-Jul-18 10:50 34.854300 -118.760481 319 12090ft 193kts
19-Jul-18 10:51 34.893148 -118.802089 319 12094ft 193kts
19-Jul-18 10:52 34.931430 -118.844020 318 12061ft 193kts
19-Jul-18 10:53 34.977085 -118.862964 0 12039ft 183kts
19-Jul-18 10:54 35.025576 -118.864853 1 12037ft 181kts
19-Jul-18 10:55 35.071774 -118.866079 1 12012ft 180kts
19-Jul-18 10:56 35.105168 -118.895353 295 11611ft 194kts
19-Jul-18 10:57 35.126644 -118.953402 295 10953ft 197kts
19-Jul-18 10:58 35.147863 -119.012974 295 10279ft 197kts
19-Jul-18 10:59 35.168563 -119.072448 295 9607ft 192kts
19-Jul-18 11:00 35.189075 -119.130941 296 8595ft 187kts
19-Jul-18 11:01 35.209451 -119.188317 296 7042ft 189kts
19-Jul-18 11:02 35.229966 -119.245418 296 5479ft 185kts
19-Jul-18 11:03 35.249997 -119.299735 297 4226ft 170kts
19-Jul-18 11:04 35.269696 -119.348725 303 3223ft 162kts
19-Jul-18 11:05 35.296320 -119.340152 76 2457ft 153kts
19-Jul-18 11:06 35.305506 -119.292617 78 2079ft 133kts
19-Jul-18 11:07 35.314869 -119.249608 74 2103ft 141kts
19-Jul-18 11:08 35.332028 -119.205769 49 2099ft 150kts
19-Jul-18 11:09 35.358493 -119.166831 50 2092ft 148kts
19-Jul-18 11:10 35.381259 -119.128987 54 2089ft 135kts
19-Jul-18 11:11 35.402242 -119.092905 55 2089ft 130kts
19-Jul-18 11:12 35.387163 -119.060183 157 2085ft 112kts
19-Jul-18 11:13 35.363802 -119.039772 84 1682ft 121kts
19-Jul-18 11:14 35.383973 -119.012232 3 1388ft 116kts
19-Jul-18 11:15 35.410827 -119.028017 314 976ft 113kts
19-Jul-18 11:16 35.430032 -119.051390 310 544ft 96kts
19-Jul-18 11:17 35.437200 -119.060562 288 487ft 1kts
19-Jul-18 11:18 35.437662 -119.060437 25 489ft 1kts
19-Jul-18 11:19 35.438036 -119.060220 23 491ft 1kts
19-Jul-18 11:20 35.438163 -119.060091 49 492ft 0kts
19-Jul-18 11:21 35.436491 -119.057173 135 491ft 21kts
19-Jul-18 11:22 35.432507 -119.052348 134 490ft 14kts
19-Jul-18 11:23 35.431596 -119.049965 14 493ft 6kts
19-Jul-18 11:24 35.431846 -119.050103 40 493ft 0kts

Navigation Log

Ident Type
Flight plan parsing failed, navigation log unavailable